createdAt,value
2018-09-05T00:01:52.302Z,26.40
2018-09-05T00:04:20.717Z,20.60
2018-09-05T00:06:49.061Z,23.00
2018-09-05T00:09:17.651Z,22.40
2018-09-05T00:11:45.981Z,21.27
2018-09-05T00:14:14.447Z,19.90
2018-09-05T00:16:42.923Z,23.00
2018-09-05T00:19:11.287Z,25.17
2018-09-05T00:21:39.647Z,19.80
2018-09-05T00:24:08.000Z,23.13
2018-09-05T00:26:36.544Z,22.47
2018-09-05T00:29:04.864Z,24.10
2018-09-05T00:31:33.278Z,20.27
2018-09-05T00:34:01.871Z,22.53
2018-09-05T00:36:30.189Z,19.53
2018-09-05T00:38:58.525Z,22.30
2018-09-05T00:41:26.925Z,22.37
2018-09-05T00:43:55.401Z,21.00
2018-09-05T00:46:23.755Z,20.07
2018-09-05T00:48:52.505Z,23.73
2018-09-05T00:51:20.842Z,21.07
2018-09-05T00:53:49.310Z,24.67
2018-09-05T00:56:17.715Z,21.97
2018-09-05T00:58:46.123Z,20.37
2018-09-05T01:01:14.572Z,22.67
2018-09-05T01:03:42.963Z,21.57
2018-09-05T01:06:11.290Z,22.07
2018-09-05T01:08:39.815Z,22.47
2018-09-05T01:11:08.147Z,20.03
2018-09-05T01:13:36.554Z,24.53
2018-09-05T01:16:05.106Z,21.17
2018-09-05T01:18:33.488Z,24.43
2018-09-05T01:21:01.885Z,21.87
2018-09-05T01:23:30.225Z,23.97
2018-09-05T01:25:58.554Z,25.50
2018-09-05T01:28:26.919Z,25.13
2018-09-05T01:30:55.253Z,24.17
2018-09-05T01:33:23.722Z,22.97
2018-09-05T01:35:56.354Z,22.37
2018-09-05T01:38:24.837Z,22.03
2018-09-05T01:40:53.165Z,27.77
2018-09-05T01:43:21.574Z,25.13
2018-09-05T01:45:49.913Z,20.13
2018-09-05T01:48:18.233Z,26.53
2018-09-05T01:50:46.533Z,27.17
2018-09-05T01:53:15.081Z,25.87
2018-09-05T01:55:43.422Z,28.60
2018-09-05T01:58:11.861Z,28.80
2018-09-05T02:00:40.254Z,26.63
2018-09-05T02:03:08.602Z,20.77
2018-09-05T02:05:36.911Z,21.73
2018-09-05T02:08:05.288Z,26.47
2018-09-05T02:10:33.907Z,23.70
2018-09-05T02:13:02.605Z,23.50
2018-09-05T02:15:30.960Z,23.40
2018-09-05T02:17:59.417Z,21.70
2018-09-05T02:20:27.858Z,23.90
2018-09-05T02:22:56.222Z,22.13
2018-09-05T02:25:24.530Z,28.60
2018-09-05T02:27:52.952Z,23.17
2018-09-05T02:30:21.434Z,28.80
2018-09-05T02:32:49.810Z,24.50
2018-09-05T02:35:18.344Z,27.57
2018-09-05T02:37:46.697Z,28.20
2018-09-05T02:40:15.088Z,24.90
2018-09-05T02:42:43.447Z,24.30
2018-09-05T02:45:11.878Z,25.20
2018-09-05T02:47:40.215Z,24.13
2018-09-05T02:50:08.738Z,21.27
2018-09-05T02:52:37.088Z,28.07
2018-09-05T02:55:05.537Z,24.70
2018-09-05T02:57:33.858Z,25.00
2018-09-05T03:00:02.322Z,27.20
2018-09-05T03:02:30.633Z,24.40
2018-09-05T03:04:59.002Z,23.40
2018-09-05T03:07:27.315Z,26.97
2018-09-05T03:09:55.836Z,24.80
2018-09-05T03:12:25.469Z,25.80
2018-09-05T03:14:53.861Z,23.70
2018-09-05T03:17:22.396Z,24.63
2018-09-05T03:19:50.718Z,28.27
2018-09-05T03:22:19.047Z,23.20
2018-09-05T03:24:47.395Z,24.87
2018-09-05T03:27:15.843Z,23.50
2018-09-05T03:29:44.315Z,22.93
2018-09-05T03:32:12.730Z,23.50
2018-09-05T03:34:41.072Z,26.93
2018-09-05T03:37:09.498Z,25.00
2018-09-05T03:39:37.925Z,28.17
2018-09-05T03:42:06.274Z,29.00
2018-09-05T03:44:34.670Z,25.50
2018-09-05T03:47:03.119Z,24.07
2018-09-05T03:49:31.621Z,23.00
2018-09-05T03:51:59.944Z,26.90
2018-09-05T03:54:28.291Z,26.20
2018-09-05T03:56:56.635Z,37.70
2018-09-05T03:59:25.044Z,24.37
2018-09-05T04:01:53.369Z,27.83
2018-09-05T04:04:21.713Z,29.63
2018-09-05T04:06:50.090Z,25.07
2018-09-05T04:09:18.578Z,28.23
2018-09-05T04:11:47.005Z,29.93
2018-09-05T04:14:15.437Z,27.53
2018-09-05T04:16:43.827Z,30.57
2018-09-05T04:19:12.257Z,31.70
2018-09-05T04:21:40.662Z,25.33
2018-09-05T04:24:09.029Z,23.67
2018-09-05T04:26:37.329Z,24.10
2018-09-05T04:29:05.758Z,26.13
2018-09-05T04:31:34.264Z,28.63
2018-09-05T04:34:02.694Z,26.27
2018-09-05T04:36:31.029Z,27.47
2018-09-05T04:38:59.321Z,31.03
2018-09-05T04:41:27.662Z,35.50
2018-09-05T04:43:56.170Z,30.87
2018-09-05T04:46:24.586Z,27.03
2018-09-05T04:48:52.963Z,30.10
2018-09-05T04:51:21.419Z,26.93
2018-09-05T04:53:49.929Z,29.07
2018-09-05T04:56:18.398Z,26.50
2018-09-05T04:58:46.766Z,27.73
2018-09-05T05:01:15.126Z,30.90
2018-09-05T05:03:43.463Z,25.13
2018-09-05T05:06:11.794Z,28.20
2018-09-05T05:08:40.382Z,28.97
2018-09-05T05:11:08.910Z,27.20
2018-09-05T05:13:37.305Z,28.73
2018-09-05T05:16:06.073Z,34.10
2018-09-05T05:18:34.421Z,29.67
2018-09-05T05:21:03.113Z,31.43
2018-09-05T05:23:31.468Z,42.37
2018-09-05T05:26:00.014Z,29.40
2018-09-05T05:28:28.372Z,34.30
2018-09-05T05:30:57.058Z,34.00
2018-09-05T05:33:25.402Z,31.57
2018-09-05T05:35:53.873Z,32.57
2018-09-05T05:38:22.315Z,30.93
2018-09-05T05:40:50.662Z,36.30
2018-09-05T05:43:19.006Z,30.63
2018-09-05T05:45:47.371Z,30.20
2018-09-05T05:48:15.806Z,33.57
2018-09-05T05:50:44.278Z,42.43
2018-09-05T05:53:13.312Z,41.20
2018-09-05T05:55:41.644Z,38.57
2018-09-05T05:58:10.052Z,50.77
2018-09-05T06:00:38.403Z,34.03
2018-09-05T06:03:06.838Z,37.07
2018-09-05T06:05:35.238Z,43.30
2018-09-05T06:08:03.849Z,36.17
2018-09-05T06:10:32.182Z,35.40
2018-09-05T06:13:00.564Z,38.30
2018-09-05T06:15:29.193Z,33.87
2018-09-05T06:17:57.545Z,37.37
2018-09-05T06:20:25.843Z,35.93
2018-09-05T06:22:54.254Z,34.70
2018-09-05T06:25:22.569Z,34.67
2018-09-05T06:27:51.187Z,36.43
2018-09-05T06:30:19.371Z,37.47
2018-09-05T06:32:47.748Z,32.17
2018-09-05T06:35:16.089Z,38.23
2018-09-05T06:37:44.425Z,34.17
2018-09-05T06:40:12.916Z,31.57
2018-09-05T06:42:41.258Z,32.17
2018-09-05T06:45:09.734Z,35.83
2018-09-05T06:47:38.039Z,31.03
2018-09-05T06:50:06.586Z,39.90
2018-09-05T06:52:35.074Z,36.03
2018-09-05T06:55:03.417Z,32.70
2018-09-05T06:57:31.804Z,35.40
2018-09-05T07:00:00.153Z,32.07
2018-09-05T07:02:29.150Z,29.93
2018-09-05T07:04:57.674Z,32.60
2018-09-05T07:07:26.785Z,28.00
2018-09-05T07:09:55.237Z,25.97
2018-09-05T07:12:23.551Z,27.10
2018-09-05T07:14:52.034Z,24.10
2018-09-05T07:17:20.417Z,24.80
2018-09-05T07:19:48.865Z,24.67
2018-09-05T07:22:17.282Z,23.77
2018-09-05T07:24:45.669Z,27.77
2018-09-05T07:27:14.039Z,24.47
2018-09-05T07:29:42.580Z,26.27
2018-09-05T07:32:11.115Z,28.53
2018-09-05T07:34:39.531Z,24.80
2018-09-05T07:37:08.055Z,23.50
2018-09-05T07:39:40.497Z,25.50
2018-09-05T07:42:08.872Z,25.30
2018-09-05T07:44:37.245Z,22.00
2018-09-05T07:47:05.790Z,20.13
2018-09-05T07:49:34.321Z,22.93
2018-09-05T07:52:02.708Z,20.47
2018-09-05T07:54:31.098Z,25.27
2018-09-05T07:56:59.514Z,22.43
2018-09-05T07:59:27.948Z,20.47
2018-09-05T08:01:56.457Z,27.67
2018-09-05T08:04:24.898Z,26.90
2018-09-05T08:06:53.306Z,21.30
2018-09-05T08:09:22.118Z,30.13
2018-09-05T08:11:50.528Z,22.90
2018-09-05T08:14:18.796Z,20.43
2018-09-05T08:16:47.324Z,21.87
2018-09-05T08:19:15.658Z,21.03
2018-09-05T08:21:44.057Z,26.10
2018-09-05T08:24:13.996Z,22.47
2018-09-05T08:26:42.321Z,19.90
2018-09-05T08:29:10.900Z,23.30
2018-09-05T08:31:39.265Z,22.50
2018-09-05T08:34:07.729Z,21.07
2018-09-05T08:36:36.342Z,25.27
2018-09-05T08:39:08.893Z,28.50
2018-09-05T08:41:37.389Z,27.77
2018-09-05T08:44:06.118Z,26.60
2018-09-05T08:46:34.434Z,24.73
2018-09-05T08:49:02.829Z,23.40
2018-09-05T08:51:31.157Z,28.57
2018-09-05T08:53:59.645Z,27.47
2018-09-05T08:56:28.005Z,21.53
2018-09-05T08:58:56.522Z,22.87
2018-09-05T09:01:24.833Z,24.40
2018-09-05T09:03:53.253Z,22.03
2018-09-05T09:06:21.637Z,21.37
2018-09-05T09:08:50.041Z,26.07
2018-09-05T09:11:18.614Z,25.53
2018-09-05T09:13:47.131Z,26.80
2018-09-05T09:16:15.544Z,22.80
2018-09-05T09:18:43.944Z,27.43
2018-09-05T09:21:12.378Z,28.43
2018-09-05T09:23:40.714Z,28.10
2018-09-05T09:26:09.904Z,24.87
2018-09-05T09:28:38.550Z,25.13
2018-09-05T09:31:07.189Z,25.17
2018-09-05T09:33:35.571Z,24.67
2018-09-05T09:36:03.931Z,21.60
2018-09-05T09:38:32.404Z,24.20
2018-09-05T09:41:00.774Z,22.10
2018-09-05T09:43:29.118Z,24.13
2018-09-05T09:45:57.558Z,22.40
2018-09-05T09:48:26.060Z,23.03
2018-09-05T09:50:54.541Z,21.60
2018-09-05T09:53:22.942Z,22.00
2018-09-05T09:55:51.275Z,21.03
2018-09-05T09:58:20.146Z,20.80
2018-09-05T10:00:53.829Z,22.27
2018-09-05T10:03:27.706Z,22.53
2018-09-05T10:06:01.403Z,21.73
2018-09-05T10:08:33.574Z,19.60
2018-09-05T10:11:17.614Z,20.47
2018-09-05T10:13:51.370Z,22.33
2018-09-05T10:16:25.159Z,21.83
2018-09-05T10:18:54.138Z,18.80
2018-09-05T10:21:23.134Z,22.83
2018-09-05T10:23:51.584Z,21.40
2018-09-05T10:26:20.035Z,24.90
2018-09-05T10:28:48.418Z,24.50
2018-09-05T10:31:16.908Z,23.27
2018-09-05T10:33:45.342Z,22.17
2018-09-05T10:36:13.888Z,25.47
2018-09-05T10:38:42.238Z,17.03
2018-09-05T10:41:10.606Z,18.27
2018-09-05T10:43:39.084Z,18.07
2018-09-05T10:46:07.554Z,22.13
2018-09-05T10:48:36.105Z,18.70
2018-09-05T10:51:04.615Z,25.00
2018-09-05T10:53:33.039Z,20.30
2018-09-05T10:56:01.369Z,17.80
2018-09-05T10:58:29.730Z,17.97
2018-09-05T11:00:59.403Z,18.87
2018-09-05T11:03:27.927Z,18.53
2018-09-05T11:05:56.311Z,21.27
2018-09-05T11:08:24.698Z,19.07
2018-09-05T11:10:53.191Z,19.87
2018-09-05T11:13:21.593Z,21.20
2018-09-05T11:15:49.973Z,18.57
2018-09-05T11:18:18.396Z,19.33
2018-09-05T11:20:46.716Z,20.10
2018-09-05T11:23:15.137Z,16.83
2018-09-05T11:25:43.473Z,21.10
2018-09-05T11:28:11.892Z,18.40
2018-09-05T11:30:40.223Z,17.90
2018-09-05T11:33:08.704Z,20.50
2018-09-05T11:35:37.094Z,19.07
2018-09-05T11:38:05.552Z,17.43
2018-09-05T11:40:33.957Z,17.90
2018-09-05T11:43:02.466Z,18.00
2018-09-05T11:45:30.923Z,17.20
2018-09-05T11:47:59.370Z,19.40
2018-09-05T11:50:27.769Z,19.10
2018-09-05T11:52:56.088Z,16.17
2018-09-05T11:55:24.463Z,17.23
2018-09-05T11:57:52.786Z,17.50
2018-09-05T12:00:21.366Z,18.00
2018-09-05T12:02:49.850Z,16.63
2018-09-05T12:05:18.376Z,15.63
2018-09-05T12:07:46.700Z,16.73
2018-09-05T12:10:15.071Z,16.63
2018-09-05T12:12:43.382Z,16.37
2018-09-05T12:15:11.739Z,16.63
2018-09-05T12:17:40.102Z,17.23
2018-09-05T12:20:08.448Z,17.50
2018-09-05T12:22:37.065Z,18.40
2018-09-05T12:25:05.526Z,16.37
2018-09-05T12:27:33.843Z,17.87
2018-09-05T12:30:02.309Z,17.17
2018-09-05T12:32:30.631Z,17.80
2018-09-05T12:34:59.406Z,17.93
2018-09-05T12:37:27.854Z,16.27
2018-09-05T12:39:56.378Z,16.20
2018-09-05T12:42:24.777Z,15.07
2018-09-05T12:44:53.246Z,15.03
2018-09-05T12:47:21.630Z,16.10
2018-09-05T12:49:50.218Z,16.83
2018-09-05T12:52:18.607Z,16.50
2018-09-05T12:54:47.024Z,16.03
2018-09-05T12:57:15.494Z,15.87
2018-09-05T12:59:44.206Z,17.70
2018-09-05T13:02:19.478Z,16.07
2018-09-05T13:04:48.101Z,14.83
2018-09-05T13:07:16.578Z,15.13
2018-09-05T13:09:44.994Z,16.00
2018-09-05T13:12:39.781Z,15.03
2018-09-05T13:15:08.283Z,15.40
2018-09-05T13:17:36.678Z,14.50
2018-09-05T13:20:05.088Z,14.10
2018-09-05T13:22:33.669Z,16.13
2018-09-05T13:25:02.033Z,13.87
2018-09-05T13:27:30.361Z,14.57
2018-09-05T13:29:58.786Z,14.10
2018-09-05T13:32:27.137Z,14.10
2018-09-05T13:34:55.473Z,14.60
2018-09-05T13:37:23.850Z,15.23
2018-09-05T13:39:52.471Z,15.33
2018-09-05T13:42:20.971Z,14.67
2018-09-05T13:44:49.410Z,14.77
2018-09-05T13:47:17.926Z,15.67
2018-09-05T13:49:46.529Z,14.10
2018-09-05T13:52:17.768Z,19.73
2018-09-05T13:54:46.617Z,15.80
2018-09-05T13:57:14.938Z,14.53
2018-09-05T13:59:43.701Z,14.83
2018-09-05T14:02:12.189Z,14.43
2018-09-05T14:04:40.641Z,14.57
2018-09-05T14:07:09.054Z,22.70
2018-09-05T14:09:37.467Z,16.40
2018-09-05T14:12:06.234Z,15.53
2018-09-05T14:14:34.622Z,16.37
2018-09-05T14:17:02.985Z,15.33
2018-09-05T14:19:31.617Z,19.37
2018-09-05T14:22:00.046Z,16.13
2018-09-05T14:24:28.587Z,16.67
2018-09-05T14:26:56.909Z,14.53
2018-09-05T14:29:25.466Z,14.30
2018-09-05T14:31:53.877Z,16.93
2018-09-05T14:34:22.217Z,19.10
2018-09-05T14:36:50.693Z,15.97
2018-09-05T14:39:19.062Z,16.00
2018-09-05T14:41:47.601Z,17.63
2018-09-05T14:44:15.933Z,14.43
2018-09-05T14:46:44.298Z,14.43
2018-09-05T14:49:12.675Z,14.97
2018-09-05T14:51:41.009Z,15.00
2018-09-05T14:54:09.506Z,19.30
2018-09-05T14:56:37.913Z,15.60
2018-09-05T14:59:06.541Z,16.93
2018-09-05T15:01:35.002Z,15.50
2018-09-05T15:04:03.428Z,15.50
2018-09-05T15:06:31.864Z,14.17
2018-09-05T15:09:00.329Z,16.00
2018-09-05T15:11:28.822Z,14.70
2018-09-05T15:13:57.426Z,16.37
2018-09-05T15:16:25.890Z,15.97
2018-09-05T15:18:54.239Z,16.33
2018-09-05T15:21:22.688Z,16.00
2018-09-05T15:23:51.108Z,16.03
2018-09-05T15:26:19.531Z,15.03
2018-09-05T15:28:47.931Z,14.80
2018-09-05T15:31:16.252Z,15.17
2018-09-05T15:33:44.647Z,14.97
2018-09-05T15:36:13.051Z,15.57
2018-09-05T15:38:41.498Z,16.40
2018-09-05T15:41:09.825Z,15.77
2018-09-05T15:43:38.385Z,13.97
2018-09-05T15:46:06.762Z,17.10
2018-09-05T15:48:35.262Z,17.50
2018-09-05T15:51:03.629Z,14.83
2018-09-05T15:53:32.081Z,14.67
2018-09-05T15:56:00.433Z,16.40
2018-09-05T15:58:28.954Z,13.10
2018-09-05T16:01:04.393Z,14.83
2018-09-05T16:03:32.894Z,14.10
2018-09-05T16:06:01.307Z,15.53
2018-09-05T16:08:29.817Z,15.10
2018-09-05T16:10:58.170Z,14.93
2018-09-05T16:13:28.123Z,13.97
2018-09-05T16:15:58.137Z,14.87
2018-09-05T16:18:27.764Z,16.73
2018-09-05T16:20:56.355Z,17.40
2018-09-05T16:23:24.900Z,17.00
2018-09-05T16:25:53.317Z,14.60
2018-09-05T16:28:21.963Z,15.23
2018-09-05T16:30:50.354Z,16.90
2018-09-05T16:33:18.802Z,16.07
2018-09-05T16:35:47.344Z,14.90
2018-09-05T16:38:15.856Z,15.23
2018-09-05T16:40:44.252Z,15.10
2018-09-05T16:43:12.677Z,15.97
2018-09-05T16:45:41.164Z,14.37
2018-09-05T16:48:09.682Z,14.23
2018-09-05T16:50:38.049Z,15.07
2018-09-05T16:53:06.493Z,14.97
2018-09-05T16:55:36.353Z,15.87
2018-09-05T16:58:07.932Z,15.10
2018-09-05T17:00:36.438Z,17.03
2018-09-05T17:03:04.801Z,15.80
2018-09-05T17:05:33.425Z,18.67
2018-09-05T17:08:02.170Z,17.40
2018-09-05T17:10:30.570Z,16.73
2018-09-05T17:12:58.953Z,16.73
2018-09-05T17:15:27.522Z,17.90
2018-09-05T17:17:55.848Z,18.20
2018-09-05T17:20:24.321Z,17.17
2018-09-05T17:22:52.711Z,18.20
2018-09-05T17:25:21.335Z,18.40
2018-09-05T17:27:49.710Z,16.77
2018-09-05T17:30:18.122Z,16.23
2018-09-05T17:32:46.485Z,19.77
2018-09-05T17:35:15.031Z,15.90
2018-09-05T17:37:43.386Z,17.00
2018-09-05T17:40:11.855Z,16.90
2018-09-05T17:42:40.290Z,17.80
2018-09-05T17:45:08.951Z,17.10
2018-09-05T17:47:37.293Z,18.87
2018-09-05T17:50:05.824Z,18.67
2018-09-05T17:52:34.189Z,17.10
2018-09-05T17:55:02.714Z,17.73
2018-09-05T17:57:31.188Z,19.47
2018-09-05T17:59:59.671Z,19.50
2018-09-05T18:02:28.123Z,19.43
2018-09-05T18:04:56.881Z,18.27
2018-09-05T18:07:25.337Z,19.10
2018-09-05T18:09:53.700Z,20.17
2018-09-05T18:12:22.146Z,20.40
2018-09-05T18:14:50.671Z,19.90
2018-09-05T18:17:19.009Z,19.83
2018-09-05T18:19:47.410Z,25.20
2018-09-05T18:22:15.867Z,19.20
2018-09-05T18:24:44.293Z,19.10
2018-09-05T18:27:12.746Z,21.30
2018-09-05T18:29:41.152Z,23.87
2018-09-05T18:32:09.625Z,19.63
2018-09-05T18:34:38.114Z,16.77
2018-09-05T18:37:06.698Z,16.30
2018-09-05T18:39:35.132Z,18.87
2018-09-05T18:42:03.579Z,19.10
2018-09-05T18:44:32.014Z,20.73
2018-09-05T18:47:00.506Z,18.70
2018-09-05T18:49:28.920Z,20.43
2018-09-05T18:51:57.412Z,18.73
2018-09-05T18:54:25.894Z,17.70
2018-09-05T18:56:54.297Z,23.33
2018-09-05T18:59:22.697Z,19.30
2018-09-05T19:01:51.189Z,16.63
2018-09-05T19:04:19.714Z,19.40
2018-09-05T19:06:48.121Z,17.00
2018-09-05T19:09:16.563Z,16.17
2018-09-05T19:11:45.045Z,17.20
2018-09-05T19:14:13.584Z,17.40
2018-09-05T19:16:41.933Z,17.97
2018-09-05T19:19:10.297Z,21.90
2018-09-05T19:21:38.741Z,16.80
2018-09-05T19:24:07.212Z,17.20
2018-09-05T19:26:35.578Z,15.83
2018-09-05T19:29:04.012Z,18.93
2018-09-05T19:31:32.567Z,17.23
2018-09-05T19:34:00.967Z,16.77
2018-09-05T19:36:29.627Z,14.93
2018-09-05T19:38:58.041Z,15.77
2018-09-05T19:41:26.424Z,18.27
2018-09-05T19:43:54.803Z,18.53
2018-09-05T19:46:23.288Z,18.67
2018-09-05T19:48:51.777Z,17.03
2018-09-05T19:51:20.243Z,17.33
2018-09-05T19:53:48.728Z,14.43
2018-09-05T19:56:17.526Z,21.37
2018-09-05T19:58:46.011Z,16.87
2018-09-05T20:01:14.503Z,14.70
2018-09-05T20:03:42.881Z,14.10
2018-09-05T20:06:11.329Z,12.47
2018-09-05T20:08:39.789Z,18.43
2018-09-05T20:11:08.187Z,15.37
2018-09-05T20:13:36.782Z,19.50
2018-09-05T20:16:05.734Z,14.77
2018-09-05T20:18:34.119Z,13.10
2018-09-05T20:21:02.478Z,17.00
2018-09-05T20:23:30.961Z,17.40
2018-09-05T20:25:59.347Z,16.60
2018-09-05T20:28:27.793Z,13.50
2018-09-05T20:30:56.349Z,14.13
2018-09-05T20:33:24.857Z,13.60
2018-09-05T20:35:53.269Z,16.00
2018-09-05T20:38:21.657Z,16.70
2018-09-05T20:40:50.133Z,14.43
2018-09-05T20:43:18.538Z,14.40
2018-09-05T20:45:46.882Z,20.93
2018-09-05T20:48:15.386Z,24.63
2018-09-05T20:50:43.857Z,23.60
2018-09-05T20:53:12.281Z,22.20
2018-09-05T20:55:40.645Z,21.00
2018-09-05T20:58:09.059Z,16.53
2018-09-05T21:00:37.490Z,20.67
2018-09-05T21:03:05.844Z,18.93
2018-09-05T21:05:34.358Z,17.80
2018-09-05T21:08:02.889Z,20.10
2018-09-05T21:10:31.414Z,19.47
2018-09-05T21:13:00.070Z,20.70
2018-09-05T21:15:28.706Z,18.63
2018-09-05T21:17:57.223Z,19.70
2018-09-05T21:20:25.645Z,20.27
2018-09-05T21:22:54.018Z,19.10
2018-09-05T21:25:22.438Z,20.57
2018-09-05T21:27:50.790Z,19.23
2018-09-05T21:30:19.121Z,21.00
2018-09-05T21:32:47.523Z,24.60
2018-09-05T21:35:15.951Z,17.07
2018-09-05T21:37:44.334Z,15.90
2018-09-05T21:40:12.779Z,18.40
2018-09-05T21:42:41.492Z,17.87
2018-09-05T21:45:09.995Z,18.10
2018-09-05T21:47:38.458Z,19.30
2018-09-05T21:50:07.058Z,25.40
2018-09-05T21:52:35.420Z,20.33
2018-09-05T21:55:03.801Z,21.60
2018-09-05T21:57:32.195Z,17.63
2018-09-05T22:00:00.653Z,17.63
2018-09-05T22:02:29.210Z,18.30
2018-09-05T22:04:57.822Z,20.10
2018-09-05T22:07:26.163Z,20.77
2018-09-05T22:09:54.561Z,21.00
2018-09-05T22:12:22.974Z,19.63
2018-09-05T22:14:51.301Z,21.60
2018-09-05T22:17:19.720Z,19.93
2018-09-05T22:19:48.186Z,19.60
2018-09-05T22:22:16.534Z,18.37
2018-09-05T22:24:44.945Z,19.63
2018-09-05T22:27:13.333Z,19.70
2018-09-05T22:29:41.768Z,19.60
2018-09-05T22:32:10.251Z,18.83
2018-09-05T22:34:38.554Z,22.07
2018-09-05T22:37:07.050Z,21.00
2018-09-05T22:39:35.443Z,22.90
2018-09-05T22:42:03.838Z,18.27
2018-09-05T22:44:43.922Z,20.93
2018-09-05T22:47:23.548Z,20.07
2018-09-05T22:50:08.725Z,22.77
2018-09-05T22:53:47.346Z,21.20
2018-09-05T22:58:35.535Z,20.70
2018-09-05T23:01:17.911Z,19.87
2018-09-05T23:03:56.232Z,20.30
2018-09-05T23:06:42.299Z,20.33
2018-09-05T23:09:10.743Z,24.30
2018-09-05T23:11:50.535Z,20.10
2018-09-05T23:14:30.344Z,22.90
2018-09-05T23:19:41.438Z,20.60
2018-09-05T23:22:09.835Z,25.00
2018-09-05T23:24:38.215Z,22.70
2018-09-05T23:27:06.564Z,19.60
2018-09-05T23:29:35.063Z,19.93
2018-09-05T23:32:03.376Z,19.50
2018-09-05T23:34:31.706Z,22.00
2018-09-05T23:37:00.219Z,23.40
2018-09-05T23:39:28.638Z,23.67
2018-09-05T23:41:57.013Z,25.37
2018-09-05T23:44:25.375Z,21.53
2018-09-05T23:46:53.706Z,22.83
2018-09-05T23:49:22.067Z,21.50
2018-09-05T23:51:50.406Z,23.60
2018-09-05T23:54:18.962Z,22.47
2018-09-05T23:56:47.439Z,23.97
2018-09-05T23:59:15.766Z,23.07
